• Join FlightAware (Why Join?)
  • Login
  • US Flag 
02:05AM EST


 

Airport Tracker/Info


-or-


 

Live Flight TrackerFlight Track Log ✈ N700BE ✈ 19-Aug-2014 ✈ KTPA - KORL

Flight Track Log - Related Links

Times and Time Zones

All times are in EDT time to prevent confusion due to time zone crossing. See the N700BE flight status page for this flight to view local times or setup timezone preferences in your user account.

Time Position Orientation Groundspeed Altitude Reporting Facility
EDT Latitude Longitude Course Direction KTS MPH feet Rate Location/Type
12:06PM 27.9167 -82.5333 180° South 173 199 3,000  Level Tampa TRACON
12:08PM 27.8333 -82.5333 180° South 220 253 4,300 1,140 Climbing Tampa TRACON
12:09PM 27.8167 -82.4667 106° East 202 232 5,900 1,140 Climbing Tampa TRACON
12:10PM 27.8500 -82.4167 53° Northeast 225 259 6,800 360 Climbing Tampa TRACON
12:12PM 27.9333 -82.3167 47° Northeast 253 291 7,000 60 Climbing Tampa TRACON
12:13PM 27.9833 -82.2500 50° Northeast 251 289 7,000  Level Tampa TRACON
12:14PM 28.0500 -82.2000 33° Northeast 248 285 7,000  Level Tampa TRACON
12:16PM 28.1500 -82.0833 46° Northeast 249 287 7,000  Level Orlando TRACON
12:17PM 28.1833 -82.0333 53° Northeast 249 287 7,000  Level Orlando TRACON
12:18PM 28.2500 -81.9667 41° Northeast 252 290 7,000  Level Orlando TRACON
12:19PM 28.3000 -81.9167 41° Northeast 251 289 7,000 -480 Level Orlando TRACON
12:20PM 28.3500 -81.8592 45° Northeast 246 283 6,100 -1,020 Descending Miami Center
12:21PM 28.3667 -81.8000 72° East 249 287 5,100 -1,260 Descending Orlando TRACON
12:22PM 28.3833 -81.7333 74° East 248 285 4,000 -600 Descending Orlando TRACON
12:23PM 28.4167 -81.6500 66° East 228 262 4,000  Level Orlando TRACON
12:24PM 28.4167 -81.5833 90° East 228 262 4,000  Level Orlando TRACON
12:25PM 28.4333 -81.5167 74° East 228 262 4,000  Level Orlando TRACON
12:26PM 28.4500 -81.4333 77° East 232 267 4,000  Level Orlando TRACON
12:27PM 28.4500 -81.3667 90° East 221 254 4,000  Level Orlando TRACON
12:28PM 28.4667 -81.3000 74° East 192 221 4,000 -420 Level Orlando TRACON
12:29PM 28.4667 -81.2500 90° East 188 216 3,300 -840 Descending Orlando TRACON
12:30PM 28.4667 -81.1833 90° East 188 216 2,400 -720 Descending Orlando TRACON
12:31PM 28.5000 -81.1500 41° Northeast 166 191 1,900 -420 Descending Orlando TRACON
12:32PM 28.5500 -81.1667 344° North 176 203 1,600 -180 Descending Orlando TRACON
12:33PM 28.5833 -81.1833 336° Northwest 134 154 1,600 -120 Level Orlando TRACON
12:34PM 28.5833 -81.2333 270° West 110 127 1,400 -180 Descending Orlando TRACON
12:35PM 28.5667 -81.2667 240° Southwest 117 135 1,300 -420 Descending Orlando TRACON
12:36PM 28.5667 -81.2833 270° West 112 129 700 -660 Descending Orlando TRACON